»·PEaware :: N5GL KHND-KLGB

N5GL :: KHND-KLGB

FLIGHT INFORMATION

Flight Status: Arrived
Operator: Privately registered:
United States
More flights under this callsign
Pilot: Georg L. (13308)
Aircraft: SOCATA TBM-900
(TBM9)
More flights by this aircraft type
Origin: KHND Henderson
United States
Destination: KLGB Long Beach
United States
More flights between these airports :: More routes between these airports
Route: +CRESO V538 GFS GITRR DSNEE4
File this flight plan on PilotEdge
Remarks: VIA FOREFLIGHT
Altitude:
(Current/Filed)
24,000ft
Speed:
(Current/Filed)
314kts
Departed: 01-Jul-20 12:28 PM
Arrived: 01-Jul-20 01:28 PM
Distance/Time
Traveled:
197nm/0:59
Distance/Time
To Go:
Arrived

Flight Plot

Page will automatically refresh every two minutes.

Flight plan parsing failed; only flown route is shown


Map Options




Map Legend


Flown Route
Filed Route
Departure Airport
Arrival Airport
Navaid (VOR, NDB)
Fix

Horizontal Profiles

Position Reports

Time Latitude Longitude Heading Altitude Ground
Speed
01-Jul-20 11:50 35.980416 -115.141571 0 2385ft 0kts
01-Jul-20 11:51 35.980416 -115.141571 0 2385ft 0kts
01-Jul-20 11:52 35.980416 -115.141571 0 2385ft 0kts
01-Jul-20 11:53 35.980416 -115.141571 0 2385ft 0kts
01-Jul-20 11:54 35.980416 -115.141571 0 2385ft 0kts
01-Jul-20 11:55 35.980416 -115.141571 0 2385ft 0kts
01-Jul-20 11:56 35.980416 -115.141571 0 2385ft 0kts
01-Jul-20 11:57 35.980416 -115.141571 0 2385ft 0kts
01-Jul-20 11:58 35.980416 -115.141571 0 2385ft 0kts
01-Jul-20 11:59 35.980416 -115.141571 0 2385ft 0kts
01-Jul-20 12:00 35.980416 -115.141571 0 2385ft 0kts
01-Jul-20 12:01 35.980416 -115.141571 0 2385ft 0kts
01-Jul-20 12:04 35.980416 -115.141571 0 2385ft 0kts
01-Jul-20 12:05 35.980416 -115.141571 0 2385ft 0kts
01-Jul-20 12:06 35.980416 -115.141571 0 2385ft 0kts
01-Jul-20 12:07 35.980416 -115.141571 0 2385ft 0kts
01-Jul-20 12:08 35.980416 -115.141571 0 2385ft 0kts
01-Jul-20 12:09 35.980416 -115.141571 0 2385ft 0kts
01-Jul-20 12:10 35.980416 -115.141571 0 2385ft 0kts
01-Jul-20 12:11 35.980416 -115.141571 0 2385ft 0kts
01-Jul-20 12:12 35.980416 -115.141571 0 2385ft 0kts
01-Jul-20 12:13 35.980416 -115.141571 0 2385ft 0kts
01-Jul-20 12:14 35.980416 -115.141571 0 2385ft 0kts
01-Jul-20 12:15 35.980416 -115.141571 0 2385ft 0kts
01-Jul-20 12:16 35.980416 -115.141571 0 2385ft 0kts
01-Jul-20 12:17 35.980416 -115.141571 0 2385ft 0kts
01-Jul-20 12:18 35.980416 -115.141571 0 2385ft 0kts
01-Jul-20 12:19 35.980783 -115.141198 74 2384ft 5kts
01-Jul-20 12:20 35.980774 -115.139035 90 2391ft 5kts
01-Jul-20 12:21 35.980760 -115.138068 91 2396ft 0kts
01-Jul-20 12:22 35.980760 -115.138068 91 2396ft 0kts
01-Jul-20 12:23 35.980720 -115.137002 86 2401ft 9kts
01-Jul-20 12:25 35.980824 -115.136098 90 2402ft 0kts
01-Jul-20 12:26 35.980824 -115.136098 90 2402ft 0kts
01-Jul-20 12:27 35.980361 -115.135332 178 2405ft 0kts
01-Jul-20 12:28 35.968110 -115.135562 181 2717ft 105kts
01-Jul-20 12:29 35.929987 -115.143786 190 4882ft 132kts
01-Jul-20 12:30 35.879936 -115.158023 191 5006ft 219kts
01-Jul-20 12:31 35.820233 -115.174637 191 4985ft 236kts
01-Jul-20 12:32 35.792166 -115.182368 191 4986ft 238kts
01-Jul-20 12:33 35.766480 -115.189496 191 4969ft 240kts
01-Jul-20 12:34 35.702428 -115.206944 191 5669ft 213kts
01-Jul-20 12:35 35.650762 -115.221426 191 7580ft 187kts
01-Jul-20 12:36 35.598579 -115.234823 174 9093ft 194kts
01-Jul-20 12:37 35.544298 -115.228034 174 10571ft 199kts
01-Jul-20 12:38 35.488523 -115.221035 174 12027ft 204kts
01-Jul-20 12:39 35.431151 -115.213847 175 13484ft 211kts
01-Jul-20 12:40 35.372082 -115.206461 175 14899ft 217kts
01-Jul-20 12:40 35.320145 -115.199969 175 15882ft 223kts
01-Jul-20 12:42 35.247605 -115.190916 176 17449ft 228kts
01-Jul-20 12:43 35.183879 -115.182992 176 18799ft 233kts
01-Jul-20 12:43 35.131899 -115.187183 227 19866ft 230kts
01-Jul-20 12:44 35.109904 -115.260500 252 21186ft 232kts
01-Jul-20 12:46 35.087211 -115.349298 252 22663ft 237kts
01-Jul-20 12:46 35.069951 -115.416821 252 22912ft 264kts
01-Jul-20 12:47 35.047178 -115.505701 252 22916ft 280kts
01-Jul-20 12:48 35.023648 -115.597204 252 22949ft 283kts
01-Jul-20 12:49 35.002134 -115.680606 251 22986ft 284kts
01-Jul-20 12:50 34.978248 -115.772902 251 22981ft 286kts
01-Jul-20 12:51 34.954198 -115.865508 251 22974ft 286kts
01-Jul-20 12:52 34.930332 -115.957102 251 23352ft 274kts
01-Jul-20 12:53 34.907671 -116.043792 252 23983ft 270kts
01-Jul-20 12:54 34.886283 -116.125024 250 23990ft 280kts
01-Jul-20 12:55 34.852309 -116.206894 242 23981ft 285kts
01-Jul-20 12:56 34.815422 -116.292592 242 23954ft 286kts
01-Jul-20 12:57 34.778267 -116.378620 242 23927ft 287kts
01-Jul-20 12:58 34.741013 -116.464668 242 23916ft 286kts
01-Jul-20 12:59 34.703777 -116.550462 242 23918ft 286kts
01-Jul-20 13:00 34.648213 -116.618959 220 23542ft 300kts
01-Jul-20 13:01 34.592960 -116.672937 219 22177ft 319kts
01-Jul-20 13:02 34.527300 -116.737061 219 20556ft 322kts
01-Jul-20 13:03 34.466252 -116.803618 224 19162ft 315kts
01-Jul-20 13:04 34.402408 -116.877792 224 17084ft 320kts
01-Jul-20 13:05 34.338551 -116.951745 224 15079ft 311kts
01-Jul-20 13:06 34.279245 -117.019997 224 14269ft 295kts
01-Jul-20 13:07 34.213180 -117.072418 211 14015ft 272kts
01-Jul-20 13:08 34.144383 -117.116974 205 13013ft 272kts
01-Jul-20 13:09 34.077043 -117.153073 205 13016ft 259kts
01-Jul-20 13:10 34.009663 -117.189161 204 12187ft 281kts
01-Jul-20 13:11 33.956404 -117.252281 229 12015ft 262kts
01-Jul-20 13:12 33.911737 -117.315167 229 11342ft 275kts
01-Jul-20 13:13 33.860438 -117.387656 228 9411ft 288kts
01-Jul-20 13:14 33.813322 -117.463294 249 8004ft 267kts
01-Jul-20 13:15 33.788929 -117.543260 248 8015ft 244kts
01-Jul-20 13:16 33.764599 -117.622856 249 7124ft 258kts
01-Jul-20 13:17 33.740786 -117.702694 249 6112ft 249kts
01-Jul-20 13:18 33.718199 -117.778769 249 5132ft 246kts
01-Jul-20 13:19 33.695707 -117.854311 249 4155ft 245kts
01-Jul-20 13:20 33.673914 -117.928093 257 3993ft 225kts
01-Jul-20 13:21 33.690357 -117.997369 313 2201ft 238kts
01-Jul-20 13:22 33.729514 -118.044628 313 1599ft 182kts
01-Jul-20 13:23 33.759400 -118.080685 312 1511ft 138kts
01-Jul-20 13:24 33.782773 -118.108961 316 874ft 105kts
01-Jul-20 13:25 33.799824 -118.129632 318 401ft 83kts
01-Jul-20 13:26 33.814520 -118.147420 315 46ft 48kts
01-Jul-20 13:27 33.818436 -118.153629 213 46ft 8kts
01-Jul-20 13:28 33.817230 -118.152565 134 46ft 18kts
01-Jul-20 13:29 33.813683 -118.151103 213 46ft 9kts
01-Jul-20 13:30 33.812260 -118.153859 181 46ft 9kts
01-Jul-20 13:31 33.812206 -118.153453 354 46ft 0kts
01-Jul-20 13:32 33.812206 -118.153453 354 46ft 0kts
01-Jul-20 13:33 33.812206 -118.153453 354 46ft 0kts
01-Jul-20 13:34 33.812206 -118.153453 354 46ft 0kts
01-Jul-20 13:35 33.812206 -118.153453 354 46ft 0kts
01-Jul-20 13:36 33.812206 -118.153453 354 46ft 0kts

Navigation Log

Ident Type
Flight plan parsing failed, navigation log unavailable